sensor_id;sensor_type;location;lat;lon;timestamp;temperature;humidity
26707;DHT22;14319;49.422;10.934;2022-08-21T00:00:32;17.40;97.30
26707;DHT22;14319;49.422;10.934;2022-08-21T00:02:33;17.30;98.00
26707;DHT22;14319;49.422;10.934;2022-08-21T00:04:34;17.40;98.50
26707;DHT22;14319;49.422;10.934;2022-08-21T00:06:35;17.40;98.20
26707;DHT22;14319;49.422;10.934;2022-08-21T00:08:35;17.50;98.20
26707;DHT22;14319;49.422;10.934;2022-08-21T00:10:36;17.50;98.40
26707;DHT22;14319;49.422;10.934;2022-08-21T00:12:37;17.40;98.00
26707;DHT22;14319;49.422;10.934;2022-08-21T00:14:38;17.50;98.10
26707;DHT22;14319;49.422;10.934;2022-08-21T00:16:40;17.50;98.00
26707;DHT22;14319;49.422;10.934;2022-08-21T00:18:40;17.50;98.00
26707;DHT22;14319;49.422;10.934;2022-08-21T00:20:42;17.50;98.50
26707;DHT22;14319;49.422;10.934;2022-08-21T00:22:43;17.60;98.30
26707;DHT22;14319;49.422;10.934;2022-08-21T00:24:45;17.60;97.60
26707;DHT22;14319;49.422;10.934;2022-08-21T00:26:45;17.50;97.50
26707;DHT22;14319;49.422;10.934;2022-08-21T00:28:48;17.40;98.10
26707;DHT22;14319;49.422;10.934;2022-08-21T00:30:49;17.50;98.30
26707;DHT22;14319;49.422;10.934;2022-08-21T00:32:50;17.50;97.70
26707;DHT22;14319;49.422;10.934;2022-08-21T00:34:52;17.30;98.30
26707;DHT22;14319;49.422;10.934;2022-08-21T00:36:53;17.10;99.60
26707;DHT22;14319;49.422;10.934;2022-08-21T00:38:53;17.10;99.90
26707;DHT22;14319;49.422;10.934;2022-08-21T00:40:55;17.10;99.90
26707;DHT22;14319;49.422;10.934;2022-08-21T00:42:55;17.00;99.90
26707;DHT22;14319;49.422;10.934;2022-08-21T00:44:57;16.90;99.90
26707;DHT22;14319;49.422;10.934;2022-08-21T00:46:58;17.00;99.90
26707;DHT22;14319;49.422;10.934;2022-08-21T00:48:59;17.00;99.90
26707;DHT22;14319;49.422;10.934;2022-08-21T00:51:02;17.00;99.90
26707;DHT22;14319;49.422;10.934;2022-08-21T00:53:04;17.00;99.90
26707;DHT22;14319;49.422;10.934;2022-08-21T00:55:07;17.00;99.90
26707;DHT22;14319;49.422;10.934;2022-08-21T00:57:09;17.10;99.90
26707;DHT22;14319;49.422;10.934;2022-08-21T00:59:11;17.20;99.90
26707;DHT22;14319;49.422;10.934;2022-08-21T01:01:12;17.30;99.30
26707;DHT22;14319;49.422;10.934;2022-08-21T01:03:15;17.30;98.60
26707;DHT22;14319;49.422;10.934;2022-08-21T01:05:16;17.30;98.70
26707;DHT22;14319;49.422;10.934;2022-08-21T01:07:17;17.30;98.20
26707;DHT22;14319;49.422;10.934;2022-08-21T01:09:18;17.30;97.60
26707;DHT22;14319;49.422;10.934;2022-08-21T01:11:19;17.00;96.40
26707;DHT22;14319;49.422;10.934;2022-08-21T01:13:20;16.50;97.70
26707;DHT22;14319;49.422;10.934;2022-08-21T01:15:26;16.30;99.60
26707;DHT22;14319;49.422;10.934;2022-08-21T01:17:28;16.30;99.90
26707;DHT22;14319;49.422;10.934;2022-08-21T01:19:31;16.20;99.90
26707;DHT22;14319;49.422;10.934;2022-08-21T01:21:32;16.10;99.90
26707;DHT22;14319;49.422;10.934;2022-08-21T01:23:34;16.10;99.90
26707;DHT22;14319;49.422;10.934;2022-08-21T01:25:36;16.10;99.90
26707;DHT22;14319;49.422;10.934;2022-08-21T01:27:36;16.20;99.90
26707;DHT22;14319;49.422;10.934;2022-08-21T01:32:41;16.30;99.90
26707;DHT22;14319;49.422;10.934;2022-08-21T01:34:43;16.30;99.90
26707;DHT22;14319;49.422;10.934;2022-08-21T01:36:44;16.30;99.90
26707;DHT22;14319;49.422;10.934;2022-08-21T01:38:45;16.30;99.90
26707;DHT22;14319;49.422;10.934;2022-08-21T01:40:47;16.30;99.90
26707;DHT22;14319;49.422;10.934;2022-08-21T01:42:48;16.40;99.90
26707;DHT22;14319;49.422;10.934;2022-08-21T01:44:48;16.40;99.90
26707;DHT22;14319;49.422;10.934;2022-08-21T01:46:50;16.30;99.90
26707;DHT22;14319;49.422;10.934;2022-08-21T01:48:51;16.30;99.90
26707;DHT22;14319;49.422;10.934;2022-08-21T01:50:51;16.30;99.90
26707;DHT22;14319;49.422;10.934;2022-08-21T01:52:52;16.40;99.90
26707;DHT22;14319;49.422;10.934;2022-08-21T01:54:52;16.50;99.90
26707;DHT22;14319;49.422;10.934;2022-08-21T01:56:53;16.60;99.90
26707;DHT22;14319;49.422;10.934;2022-08-21T01:58:54;16.70;99.90
26707;DHT22;14319;49.422;10.934;2022-08-21T02:00:55;16.70;99.90
26707;DHT22;14319;49.422;10.934;2022-08-21T02:02:56;16.60;99.90
26707;DHT22;14319;49.422;10.934;2022-08-21T02:04:56;16.60;99.90
26707;DHT22;14319;49.422;10.934;2022-08-21T02:06:57;16.60;99.90
26707;DHT22;14319;49.422;10.934;2022-08-21T02:08:57;16.70;99.90
26707;DHT22;14319;49.422;10.934;2022-08-21T02:10:58;16.60;99.90
26707;DHT22;14319;49.422;10.934;2022-08-21T02:13:00;16.60;99.90
26707;DHT22;14319;49.422;10.934;2022-08-21T02:15:02;16.70;99.90
26707;DHT22;14319;49.422;10.934;2022-08-21T02:17:04;16.70;99.90
26707;DHT22;14319;49.422;10.934;2022-08-21T02:19:05;16.70;99.90
26707;DHT22;14319;49.422;10.934;2022-08-21T02:21:06;16.60;99.90
26707;DHT22;14319;49.422;10.934;2022-08-21T02:23:08;16.70;99.90
26707;DHT22;14319;49.422;10.934;2022-08-21T02:25:10;16.50;99.90
26707;DHT22;14319;49.422;10.934;2022-08-21T02:27:10;16.50;99.90
26707;DHT22;14319;49.422;10.934;2022-08-21T02:29:11;16.50;99.90
26707;DHT22;14319;49.422;10.934;2022-08-21T02:31:11;16.30;99.90
26707;DHT22;14319;49.422;10.934;2022-08-21T02:33:12;16.30;99.90
26707;DHT22;14319;49.422;10.934;2022-08-21T02:35:13;16.20;99.90
26707;DHT22;14319;49.422;10.934;2022-08-21T02:37:14;16.20;99.90
26707;DHT22;14319;49.422;10.934;2022-08-21T02:39:17;16.20;99.90
26707;DHT22;14319;49.422;10.934;2022-08-21T02:41:19;16.30;99.90
26707;DHT22;14319;49.422;10.934;2022-08-21T02:43:20;16.40;99.90
26707;DHT22;14319;49.422;10.934;2022-08-21T02:45:22;16.40;99.90
26707;DHT22;14319;49.422;10.934;2022-08-21T02:47:22;16.40;99.90
26707;DHT22;14319;49.422;10.934;2022-08-21T02:49:23;16.50;99.90
26707;DHT22;14319;49.422;10.934;2022-08-21T02:51:24;16.60;99.90
26707;DHT22;14319;49.422;10.934;2022-08-21T02:53:26;16.60;99.90
26707;DHT22;14319;49.422;10.934;2022-08-21T02:55:27;16.60;99.90
26707;DHT22;14319;49.422;10.934;2022-08-21T02:57:28;16.60;99.90
26707;DHT22;14319;49.422;10.934;2022-08-21T02:59:29;16.60;99.90
26707;DHT22;14319;49.422;10.934;2022-08-21T03:01:30;16.50;99.90
26707;DHT22;14319;49.422;10.934;2022-08-21T03:03:30;16.50;99.90
26707;DHT22;14319;49.422;10.934;2022-08-21T03:05:32;16.50;99.90
26707;DHT22;14319;49.422;10.934;2022-08-21T03:07:33;16.50;99.90
26707;DHT22;14319;49.422;10.934;2022-08-21T03:09:35;16.40;99.90
26707;DHT22;14319;49.422;10.934;2022-08-21T03:11:35;16.50;99.90
26707;DHT22;14319;49.422;10.934;2022-08-21T03:13:36;16.50;99.90
26707;DHT22;14319;49.422;10.934;2022-08-21T03:15:37;16.50;99.90
26707;DHT22;14319;49.422;10.934;2022-08-21T03:17:38;16.40;99.90
26707;DHT22;14319;49.422;10.934;2022-08-21T03:19:39;16.50;99.90
26707;DHT22;14319;49.422;10.934;2022-08-21T03:21:39;16.40;99.90
26707;DHT22;14319;49.422;10.934;2022-08-21T03:23:40;16.50;99.90
26707;DHT22;14319;49.422;10.934;2022-08-21T03:25:42;16.30;99.90
26707;DHT22;14319;49.422;10.934;2022-08-21T03:27:43;16.30;99.90
26707;DHT22;14319;49.422;10.934;2022-08-21T03:29:44;16.30;99.90
26707;DHT22;14319;49.422;10.934;2022-08-21T03:31:45;16.40;99.90
26707;DHT22;14319;49.422;10.934;2022-08-21T03:33:45;16.30;99.90
26707;DHT22;14319;49.422;10.934;2022-08-21T03:35:47;16.30;99.90
26707;DHT22;14319;49.422;10.934;2022-08-21T03:37:49;16.10;99.90
26707;DHT22;14319;49.422;10.934;2022-08-21T03:39:50;16.10;99.90
26707;DHT22;14319;49.422;10.934;2022-08-21T03:41:50;16.20;99.90
26707;DHT22;14319;49.422;10.934;2022-08-21T03:43:51;16.10;99.90
26707;DHT22;14319;49.422;10.934;2022-08-21T03:45:52;16.10;99.90
26707;DHT22;14319;49.422;10.934;2022-08-21T03:47:54;16.10;99.90
26707;DHT22;14319;49.422;10.934;2022-08-21T03:49:56;16.10;99.90
26707;DHT22;14319;49.422;10.934;2022-08-21T03:51:56;16.00;99.90
26707;DHT22;14319;49.422;10.934;2022-08-21T03:53:57;15.90;99.90
26707;DHT22;14319;49.422;10.934;2022-08-21T03:55:58;16.00;99.90
26707;DHT22;14319;49.422;10.934;2022-08-21T03:57:59;16.00;99.90
26707;DHT22;14319;49.422;10.934;2022-08-21T04:00:00;15.90;99.90
26707;DHT22;14319;49.422;10.934;2022-08-21T04:02:01;16.00;99.90
26707;DHT22;14319;49.422;10.934;2022-08-21T04:04:05;16.00;99.90
26707;DHT22;14319;49.422;10.934;2022-08-21T04:06:07;16.00;99.90
26707;DHT22;14319;49.422;10.934;2022-08-21T04:08:08;16.10;99.90
26707;DHT22;14319;49.422;10.934;2022-08-21T04:10:08;16.00;99.90
26707;DHT22;14319;49.422;10.934;2022-08-21T04:12:09;16.00;99.90
26707;DHT22;14319;49.422;10.934;2022-08-21T04:14:10;16.00;99.90
26707;DHT22;14319;49.422;10.934;2022-08-21T04:16:11;15.90;99.90
26707;DHT22;14319;49.422;10.934;2022-08-21T04:18:12;15.90;99.90
26707;DHT22;14319;49.422;10.934;2022-08-21T04:20:14;16.10;99.90
26707;DHT22;14319;49.422;10.934;2022-08-21T04:22:15;16.20;99.90
26707;DHT22;14319;49.422;10.934;2022-08-21T04:24:16;16.30;99.90
26707;DHT22;14319;49.422;10.934;2022-08-21T04:26:16;16.40;99.90
26707;DHT22;14319;49.422;10.934;2022-08-21T04:28:17;16.40;99.90
26707;DHT22;14319;49.422;10.934;2022-08-21T04:30:21;16.40;99.90
26707;DHT22;14319;49.422;10.934;2022-08-21T04:32:24;16.30;99.90
26707;DHT22;14319;49.422;10.934;2022-08-21T04:34:25;16.30;99.90
26707;DHT22;14319;49.422;10.934;2022-08-21T04:36:26;16.30;99.90
26707;DHT22;14319;49.422;10.934;2022-08-21T04:38:26;16.30;99.90
26707;DHT22;14319;49.422;10.934;2022-08-21T04:40:28;16.30;99.90
26707;DHT22;14319;49.422;10.934;2022-08-21T04:42:28;16.10;99.90
26707;DHT22;14319;49.422;10.934;2022-08-21T04:44:29;16.00;99.90
26707;DHT22;14319;49.422;10.934;2022-08-21T04:46:29;16.00;99.90
26707;DHT22;14319;49.422;10.934;2022-08-21T04:48:30;15.90;99.90
26707;DHT22;14319;49.422;10.934;2022-08-21T04:52:38;16.10;99.90
26707;DHT22;14319;49.422;10.934;2022-08-21T04:54:39;16.00;99.90
26707;DHT22;14319;49.422;10.934;2022-08-21T04:56:49;15.90;99.90
26707;DHT22;14319;49.422;10.934;2022-08-21T04:58:52;15.70;99.90
26707;DHT22;14319;49.422;10.934;2022-08-21T05:00:54;15.60;99.90
26707;DHT22;14319;49.422;10.934;2022-08-21T05:02:54;15.60;99.90
26707;DHT22;14319;49.422;10.934;2022-08-21T05:04:56;15.60;99.90
26707;DHT22;14319;49.422;10.934;2022-08-21T05:06:58;15.70;99.90
26707;DHT22;14319;49.422;10.934;2022-08-21T05:09:00;15.80;99.90
26707;DHT22;14319;49.422;10.934;2022-08-21T05:11:02;15.70;99.90
26707;DHT22;14319;49.422;10.934;2022-08-21T05:13:03;15.80;99.90
26707;DHT22;14319;49.422;10.934;2022-08-21T05:15:06;15.80;99.90
26707;DHT22;14319;49.422;10.934;2022-08-21T05:17:06;15.80;99.90
26707;DHT22;14319;49.422;10.934;2022-08-21T05:19:07;15.70;99.90
26707;DHT22;14319;49.422;10.934;2022-08-21T05:21:08;15.90;99.90
26707;DHT22;14319;49.422;10.934;2022-08-21T05:23:11;15.90;99.90
26707;DHT22;14319;49.422;10.934;2022-08-21T05:25:12;15.70;99.90
26707;DHT22;14319;49.422;10.934;2022-08-21T05:27:12;15.50;99.90
26707;DHT22;14319;49.422;10.934;2022-08-21T05:29:13;15.40;99.90
26707;DHT22;14319;49.422;10.934;2022-08-21T05:31:14;15.40;99.90
26707;DHT22;14319;49.422;10.934;2022-08-21T05:33:15;15.40;99.90
26707;DHT22;14319;49.422;10.934;2022-08-21T05:35:16;15.50;99.90
26707;DHT22;14319;49.422;10.934;2022-08-21T05:37:17;15.70;99.90
26707;DHT22;14319;49.422;10.934;2022-08-21T05:39:17;15.70;99.90
26707;DHT22;14319;49.422;10.934;2022-08-21T05:41:18;15.90;99.90
26707;DHT22;14319;49.422;10.934;2022-08-21T05:43:19;16.00;99.90
26707;DHT22;14319;49.422;10.934;2022-08-21T05:45:24;16.10;99.90
26707;DHT22;14319;49.422;10.934;2022-08-21T05:47:25;16.10;99.90
26707;DHT22;14319;49.422;10.934;2022-08-21T05:49:25;16.10;99.90
26707;DHT22;14319;49.422;10.934;2022-08-21T05:51:26;16.10;99.90
26707;DHT22;14319;49.422;10.934;2022-08-21T05:53:26;15.90;99.90
26707;DHT22;14319;49.422;10.934;2022-08-21T05:55:27;16.00;99.90
26707;DHT22;14319;49.422;10.934;2022-08-21T05:57:28;16.10;99.90
26707;DHT22;14319;49.422;10.934;2022-08-21T05:59:29;16.20;99.90
26707;DHT22;14319;49.422;10.934;2022-08-21T06:01:29;16.40;99.90
26707;DHT22;14319;49.422;10.934;2022-08-21T06:03:32;16.40;99.90
26707;DHT22;14319;49.422;10.934;2022-08-21T06:05:33;16.30;99.90
26707;DHT22;14319;49.422;10.934;2022-08-21T06:07:34;16.10;99.90
26707;DHT22;14319;49.422;10.934;2022-08-21T06:09:34;15.90;99.90
26707;DHT22;14319;49.422;10.934;2022-08-21T06:11:35;16.00;99.90
26707;DHT22;14319;49.422;10.934;2022-08-21T06:13:36;16.00;99.90
26707;DHT22;14319;49.422;10.934;2022-08-21T06:15:37;16.10;99.90
26707;DHT22;14319;49.422;10.934;2022-08-21T06:17:38;16.30;99.90
26707;DHT22;14319;49.422;10.934;2022-08-21T06:19:39;16.30;99.90
26707;DHT22;14319;49.422;10.934;2022-08-21T06:21:40;16.40;99.90
26707;DHT22;14319;49.422;10.934;2022-08-21T06:23:41;16.30;99.90
26707;DHT22;14319;49.422;10.934;2022-08-21T06:25:42;16.30;99.90
26707;DHT22;14319;49.422;10.934;2022-08-21T06:27:43;16.30;99.90
26707;DHT22;14319;49.422;10.934;2022-08-21T06:29:44;16.50;99.90
26707;DHT22;14319;49.422;10.934;2022-08-21T06:31:46;16.60;99.90
26707;DHT22;14319;49.422;10.934;2022-08-21T06:33:47;16.40;99.90
26707;DHT22;14319;49.422;10.934;2022-08-21T06:35:48;16.40;99.90
26707;DHT22;14319;49.422;10.934;2022-08-21T06:37:49;16.50;99.90
26707;DHT22;14319;49.422;10.934;2022-08-21T06:39:50;16.60;99.90
26707;DHT22;14319;49.422;10.934;2022-08-21T06:41:50;16.60;99.90
26707;DHT22;14319;49.422;10.934;2022-08-21T06:43:51;16.50;99.90
26707;DHT22;14319;49.422;10.934;2022-08-21T06:45:52;16.60;99.90
26707;DHT22;14319;49.422;10.934;2022-08-21T06:47:53;16.70;99.90
26707;DHT22;14319;49.422;10.934;2022-08-21T06:49:54;16.80;99.90
26707;DHT22;14319;49.422;10.934;2022-08-21T06:51:55;16.90;99.90
26707;DHT22;14319;49.422;10.934;2022-08-21T06:53:56;17.00;99.90
26707;DHT22;14319;49.422;10.934;2022-08-21T06:55:57;17.00;99.90
26707;DHT22;14319;49.422;10.934;2022-08-21T06:57:58;16.80;99.90
26707;DHT22;14319;49.422;10.934;2022-08-21T06:59:58;16.60;99.90
26707;DHT22;14319;49.422;10.934;2022-08-21T07:01:59;16.70;99.90
26707;DHT22;14319;49.422;10.934;2022-08-21T07:04:00;16.70;99.90
26707;DHT22;14319;49.422;10.934;2022-08-21T07:06:00;16.90;99.90
26707;DHT22;14319;49.422;10.934;2022-08-21T07:08:01;16.90;99.90
26707;DHT22;14319;49.422;10.934;2022-08-21T07:10:02;16.90;99.90
26707;DHT22;14319;49.422;10.934;2022-08-21T07:12:03;16.70;99.90
26707;DHT22;14319;49.422;10.934;2022-08-21T07:14:04;16.90;99.90
26707;DHT22;14319;49.422;10.934;2022-08-21T07:16:04;16.90;99.90
26707;DHT22;14319;49.422;10.934;2022-08-21T07:18:05;16.70;99.90
26707;DHT22;14319;49.422;10.934;2022-08-21T07:20:06;16.60;99.90
26707;DHT22;14319;49.422;10.934;2022-08-21T07:22:07;16.60;99.90
26707;DHT22;14319;49.422;10.934;2022-08-21T07:24:08;16.60;99.90
26707;DHT22;14319;49.422;10.934;2022-08-21T07:26:09;16.90;99.90
26707;DHT22;14319;49.422;10.934;2022-08-21T07:28:09;17.00;99.90
26707;DHT22;14319;49.422;10.934;2022-08-21T07:30:10;17.10;99.90
26707;DHT22;14319;49.422;10.934;2022-08-21T07:32:11;17.10;99.90
26707;DHT22;14319;49.422;10.934;2022-08-21T07:34:12;17.20;99.90
26707;DHT22;14319;49.422;10.934;2022-08-21T07:36:13;17.30;99.90
26707;DHT22;14319;49.422;10.934;2022-08-21T07:38:13;17.50;99.90
26707;DHT22;14319;49.422;10.934;2022-08-21T07:40:14;17.50;99.00
26707;DHT22;14319;49.422;10.934;2022-08-21T07:42:16;17.20;99.90
26707;DHT22;14319;49.422;10.934;2022-08-21T07:44:17;17.20;99.90
26707;DHT22;14319;49.422;10.934;2022-08-21T07:46:17;17.30;99.90
26707;DHT22;14319;49.422;10.934;2022-08-21T07:48:18;17.10;99.90
26707;DHT22;14319;49.422;10.934;2022-08-21T07:50:19;17.20;99.90
26707;DHT22;14319;49.422;10.934;2022-08-21T07:52:19;17.30;99.90
26707;DHT22;14319;49.422;10.934;2022-08-21T07:54:21;17.40;99.90
26707;DHT22;14319;49.422;10.934;2022-08-21T07:56:22;17.40;99.90
26707;DHT22;14319;49.422;10.934;2022-08-21T07:58:23;17.60;99.90
26707;DHT22;14319;49.422;10.934;2022-08-21T08:00:24;17.80;98.50
26707;DHT22;14319;49.422;10.934;2022-08-21T08:02:25;17.90;97.90
26707;DHT22;14319;49.422;10.934;2022-08-21T08:04:26;17.60;99.90
26707;DHT22;14319;49.422;10.934;2022-08-21T08:06:27;17.20;99.90
26707;DHT22;14319;49.422;10.934;2022-08-21T08:08:28;17.30;99.90
26707;DHT22;14319;49.422;10.934;2022-08-21T08:10:29;17.60;99.90
26707;DHT22;14319;49.422;10.934;2022-08-21T08:12:30;17.70;98.40
26707;DHT22;14319;49.422;10.934;2022-08-21T08:14:30;17.80;99.30
26707;DHT22;14319;49.422;10.934;2022-08-21T08:16:31;17.90;99.20
26707;DHT22;14319;49.422;10.934;2022-08-21T08:18:32;17.60;98.20
26707;DHT22;14319;49.422;10.934;2022-08-21T08:20:33;17.20;99.90
26707;DHT22;14319;49.422;10.934;2022-08-21T08:22:33;17.10;99.90
26707;DHT22;14319;49.422;10.934;2022-08-21T08:24:37;17.30;99.90
26707;DHT22;14319;49.422;10.934;2022-08-21T08:26:38;17.60;99.90
26707;DHT22;14319;49.422;10.934;2022-08-21T08:28:39;17.90;99.50
26707;DHT22;14319;49.422;10.934;2022-08-21T08:30:40;18.20;98.30
26707;DHT22;14319;49.422;10.934;2022-08-21T08:32:40;18.20;96.00
26707;DHT22;14319;49.422;10.934;2022-08-21T08:34:41;18.10;97.40
26707;DHT22;14319;49.422;10.934;2022-08-21T08:36:42;18.20;96.70
26707;DHT22;14319;49.422;10.934;2022-08-21T08:38:43;18.40;94.80
26707;DHT22;14319;49.422;10.934;2022-08-21T08:42:53;18.20;96.30
26707;DHT22;14319;49.422;10.934;2022-08-21T08:44:58;17.90;96.70
26707;DHT22;14319;49.422;10.934;2022-08-21T08:47:00;17.90;98.00
26707;DHT22;14319;49.422;10.934;2022-08-21T08:51:23;18.00;96.40
26707;DHT22;14319;49.422;10.934;2022-08-21T08:53:27;18.10;96.50
26707;DHT22;14319;49.422;10.934;2022-08-21T08:55:36;18.20;96.40
26707;DHT22;14319;49.422;10.934;2022-08-21T08:57:38;18.20;96.00
26707;DHT22;14319;49.422;10.934;2022-08-21T08:59:42;18.60;95.30
26707;DHT22;14319;49.422;10.934;2022-08-21T09:01:43;18.60;93.60
26707;DHT22;14319;49.422;10.934;2022-08-21T09:03:44;18.50;93.60
26707;DHT22;14319;49.422;10.934;2022-08-21T09:10:30;19.10;92.50
26707;DHT22;14319;49.422;10.934;2022-08-21T09:12:43;19.40;91.10
26707;DHT22;14319;49.422;10.934;2022-08-21T09:14:47;19.60;90.70
26707;DHT22;14319;49.422;10.934;2022-08-21T09:16:58;19.70;88.70
26707;DHT22;14319;49.422;10.934;2022-08-21T09:21:43;19.80;89.40
26707;DHT22;14319;49.422;10.934;2022-08-21T09:23:52;19.90;88.50
26707;DHT22;14319;49.422;10.934;2022-08-21T09:25:56;19.60;89.50
26707;DHT22;14319;49.422;10.934;2022-08-21T09:27:58;19.70;91.40
26707;DHT22;14319;49.422;10.934;2022-08-21T09:29:59;19.90;89.10
26707;DHT22;14319;49.422;10.934;2022-08-21T09:31:59;19.80;89.10
26707;DHT22;14319;49.422;10.934;2022-08-21T09:34:02;20.00;88.60
26707;DHT22;14319;49.422;10.934;2022-08-21T09:36:02;19.70;87.00
26707;DHT22;14319;49.422;10.934;2022-08-21T09:38:23;19.70;89.70
26707;DHT22;14319;49.422;10.934;2022-08-21T09:42:31;20.10;87.80
26707;DHT22;14319;49.422;10.934;2022-08-21T09:44:34;19.90;86.80
26707;DHT22;14319;49.422;10.934;2022-08-21T09:46:49;20.20;88.50
26707;DHT22;14319;49.422;10.934;2022-08-21T09:48:52;20.40;87.90
26707;DHT22;14319;49.422;10.934;2022-08-21T09:50:53;20.20;86.70
26707;DHT22;14319;49.422;10.934;2022-08-21T09:53:05;19.90;88.00
26707;DHT22;14319;49.422;10.934;2022-08-21T09:55:06;19.20;89.10
26707;DHT22;14319;49.422;10.934;2022-08-21T09:57:34;19.00;89.90
26707;DHT22;14319;49.422;10.934;2022-08-21T09:59:46;18.80;91.70
26707;DHT22;14319;49.422;10.934;2022-08-21T10:01:49;19.00;93.00
26707;DHT22;14319;49.422;10.934;2022-08-21T10:04:08;19.10;91.30
26707;DHT22;14319;49.422;10.934;2022-08-21T10:06:10;19.20;91.30
26707;DHT22;14319;49.422;10.934;2022-08-21T10:08:18;19.20;91.60
26707;DHT22;14319;49.422;10.934;2022-08-21T10:10:20;19.20;90.90
26707;DHT22;14319;49.422;10.934;2022-08-21T10:12:22;19.20;91.20
26707;DHT22;14319;49.422;10.934;2022-08-21T10:20:37;19.20;89.80
26707;DHT22;14319;49.422;10.934;2022-08-21T10:24:47;19.10;89.00
26707;DHT22;14319;49.422;10.934;2022-08-21T10:35:24;19.80;88.20
26707;DHT22;14319;49.422;10.934;2022-08-21T10:42:02;19.90;85.90
26707;DHT22;14319;49.422;10.934;2022-08-21T10:48:15;19.60;84.80
26707;DHT22;14319;49.422;10.934;2022-08-21T10:54:35;19.70;87.10
26707;DHT22;14319;49.422;10.934;2022-08-21T10:56:40;19.90;86.80
26707;DHT22;14319;49.422;10.934;2022-08-21T10:58:43;20.10;83.10
26707;DHT22;14319;49.422;10.934;2022-08-21T11:00:47;20.50;81.00
26707;DHT22;14319;49.422;10.934;2022-08-21T11:06:58;20.50;82.60
26707;DHT22;14319;49.422;10.934;2022-08-21T11:09:11;20.40;81.90
26707;DHT22;14319;49.422;10.934;2022-08-21T11:11:20;20.60;80.70
26707;DHT22;14319;49.422;10.934;2022-08-21T11:18:01;20.60;78.30
26707;DHT22;14319;49.422;10.934;2022-08-21T11:20:28;20.60;78.50
26707;DHT22;14319;49.422;10.934;2022-08-21T11:22:26;20.70;80.90
26707;DHT22;14319;49.422;10.934;2022-08-21T11:24:32;20.80;75.80
26707;DHT22;14319;49.422;10.934;2022-08-21T11:26:43;20.80;78.50
26707;DHT22;14319;49.422;10.934;2022-08-21T11:28:50;20.80;79.20
26707;DHT22;14319;49.422;10.934;2022-08-21T11:33:23;21.10;76.10
26707;DHT22;14319;49.422;10.934;2022-08-21T11:42:02;21.60;72.10
26707;DHT22;14319;49.422;10.934;2022-08-21T11:44:10;21.60;73.30
26707;DHT22;14319;49.422;10.934;2022-08-21T11:50:47;21.70;73.40
26707;DHT22;14319;49.422;10.934;2022-08-21T11:53:07;21.60;68.20
26707;DHT22;14319;49.422;10.934;2022-08-21T11:57:14;21.60;70.90
26707;DHT22;14319;49.422;10.934;2022-08-21T11:59:19;21.60;73.60
26707;DHT22;14319;49.422;10.934;2022-08-21T12:01:23;21.70;75.20
26707;DHT22;14319;49.422;10.934;2022-08-21T12:03:26;21.80;73.60
26707;DHT22;14319;49.422;10.934;2022-08-21T12:05:36;22.00;72.70
26707;DHT22;14319;49.422;10.934;2022-08-21T12:07:39;22.10;71.00
26707;DHT22;14319;49.422;10.934;2022-08-21T12:09:50;22.20;71.00
26707;DHT22;14319;49.422;10.934;2022-08-21T12:14:13;22.50;71.20
26707;DHT22;14319;49.422;10.934;2022-08-21T12:16:15;22.60;68.70
26707;DHT22;14319;49.422;10.934;2022-08-21T12:18:49;22.60;69.60
26707;DHT22;14319;49.422;10.934;2022-08-21T12:20:44;22.70;67.70
26707;DHT22;14319;49.422;10.934;2022-08-21T12:22:52;22.70;69.60
26707;DHT22;14319;49.422;10.934;2022-08-21T12:25:02;22.60;68.30
26707;DHT22;14319;49.422;10.934;2022-08-21T12:27:13;22.60;69.70
26707;DHT22;14319;49.422;10.934;2022-08-21T12:29:25;22.50;65.50
26707;DHT22;14319;49.422;10.934;2022-08-21T12:31:27;22.30;66.80
26707;DHT22;14319;49.422;10.934;2022-08-21T12:35:32;22.40;67.30
26707;DHT22;14319;49.422;10.934;2022-08-21T12:39:36;22.50;66.60
26707;DHT22;14319;49.422;10.934;2022-08-21T12:41:42;22.70;65.40
26707;DHT22;14319;49.422;10.934;2022-08-21T12:43:46;22.70;66.50
26707;DHT22;14319;49.422;10.934;2022-08-21T12:45:48;22.80;67.00
26707;DHT22;14319;49.422;10.934;2022-08-21T12:47:56;22.90;65.40
26707;DHT22;14319;49.422;10.934;2022-08-21T12:50:09;23.00;62.80
26707;DHT22;14319;49.422;10.934;2022-08-21T12:52:22;22.80;62.90
26707;DHT22;14319;49.422;10.934;2022-08-21T12:54:37;22.90;65.00
26707;DHT22;14319;49.422;10.934;2022-08-21T12:56:38;23.10;63.40
26707;DHT22;14319;49.422;10.934;2022-08-21T12:58:41;23.20;62.20
26707;DHT22;14319;49.422;10.934;2022-08-21T13:00:44;23.30;61.90
26707;DHT22;14319;49.422;10.934;2022-08-21T13:02:48;23.20;62.60
26707;DHT22;14319;49.422;10.934;2022-08-21T13:04:49;22.70;61.40
26707;DHT22;14319;49.422;10.934;2022-08-21T13:06:52;22.80;62.40
26707;DHT22;14319;49.422;10.934;2022-08-21T13:08:55;22.80;61.20
26707;DHT22;14319;49.422;10.934;2022-08-21T13:10:59;22.70;62.80
26707;DHT22;14319;49.422;10.934;2022-08-21T13:13:05;22.60;62.90
26707;DHT22;14319;49.422;10.934;2022-08-21T13:15:07;22.60;62.90
26707;DHT22;14319;49.422;10.934;2022-08-21T13:17:09;22.40;61.00
26707;DHT22;14319;49.422;10.934;2022-08-21T13:19:11;22.40;63.30
26707;DHT22;14319;49.422;10.934;2022-08-21T13:21:17;22.30;63.90
26707;DHT22;14319;49.422;10.934;2022-08-21T13:23:20;22.30;64.90
26707;DHT22;14319;49.422;10.934;2022-08-21T13:25:21;22.50;64.80
26707;DHT22;14319;49.422;10.934;2022-08-21T13:27:29;22.60;63.10
26707;DHT22;14319;49.422;10.934;2022-08-21T13:29:32;22.70;63.50
26707;DHT22;14319;49.422;10.934;2022-08-21T13:31:32;22.70;61.90
26707;DHT22;14319;49.422;10.934;2022-08-21T13:33:33;22.60;63.40
26707;DHT22;14319;49.422;10.934;2022-08-21T13:35:36;22.70;62.20
26707;DHT22;14319;49.422;10.934;2022-08-21T13:37:38;22.80;61.50
26707;DHT22;14319;49.422;10.934;2022-08-21T13:39:40;22.80;62.90
26707;DHT22;14319;49.422;10.934;2022-08-21T13:41:41;22.90;62.40
26707;DHT22;14319;49.422;10.934;2022-08-21T13:43:49;22.90;61.00
26707;DHT22;14319;49.422;10.934;2022-08-21T13:45:50;22.90;60.10
26707;DHT22;14319;49.422;10.934;2022-08-21T13:47:52;22.90;63.30
26707;DHT22;14319;49.422;10.934;2022-08-21T13:49:53;22.80;61.80
26707;DHT22;14319;49.422;10.934;2022-08-21T13:51:55;22.90;61.30
26707;DHT22;14319;49.422;10.934;2022-08-21T13:53:55;23.00;63.20
26707;DHT22;14319;49.422;10.934;2022-08-21T13:55:56;23.10;61.80
26707;DHT22;14319;49.422;10.934;2022-08-21T13:58:01;23.20;59.00
26707;DHT22;14319;49.422;10.934;2022-08-21T14:00:16;23.30;59.60